Wooster, OH (44691)

3:44 PM EST on February 06, 2016 (GMT -0500)
Erik's Casa | | Change Station
CLOSE
Current Station
Personal Weather Station
Location: Wooster, OH
Elevation: 1053 ft
Nearby Weather Stations

Elev 1053 ft 40.81 °N, 81.93 °W | Updated 3 minutes ago

Clear
Clear
41.5 °F
Feels Like 42 °F
N
0.0
Wind Variable Wind from WSW

Today
High -- | Low -- °F
--% Chance of Precip.
Yesterday
High -- | Low -- °F
Precip. -- in
Pressure 30.24 in
Visibility 10.0 miles
Clouds Clear
Windchill 42 °F
Dew Point 19 °F
Humidity 40%
Rainfall 0.00 in
Snow Depth Not available.
7:33 AM 5:50 PM
Waning Crescent, 4% visible
METAR KBJJ 061956Z AUTO 23007KT 10SM CLR 03/M06 A3020 RMK AO2 SLP239 T00331061
Pressure 30.24 in
Visibility 10.0 miles
Clouds Clear
Windchill 42 °F
Dew Point 19 °F
Humidity 40%
Rainfall 0.00 in
Snow Depth Not available.
7:33 AM 5:50 PM
Waning Crescent, 4% visible
METAR KBJJ 061956Z AUTO 23007KT 10SM CLR 03/M06 A3020 RMK AO2 SLP239 T00331061

10-Day Weather Forecast

Almanac

Astronomy

Feb. 06, 2016 Rise Set
Actual Time
Civil Twilight
Nautical Twilight
Astronomical Twilight
Moon
Length of Visible Light
Length of Day
Tomorrow will be .
, % of the Moon is Illuminated

Today's Extremes

State Highs State Lows

Community

WunderPhotos

Upload Photos

1,891,046 photos uploaded!

WunderBlog® & News

Nearby

Air Quality

  Air Quality AQ Index Pollutant
Not available.

Snow Depth

Station Depth Elevation

Earthquake Activity

City Distance Mag. Time & Date
Minimum magnitude displayed is 2.5.

Coastal Water Temperatures

Place Temperature

Stations

Nearby Weather Stations

Station Location Temp. Windchill Dew Point Humidity Wind Precip. Elev Updated Type
                   

Watches & Warnings

There are currently no watches in effect.